createdAt,value
2018-05-27T00:02:08.895Z,94.80
2018-05-27T00:04:36.914Z,94.50
2018-05-27T00:07:04.919Z,94.40
2018-05-27T00:09:32.923Z,93.90
2018-05-27T00:12:00.935Z,93.90
2018-05-27T00:14:29.008Z,93.90
2018-05-27T00:16:57.335Z,93.80
2018-05-27T00:19:25.352Z,94.30
2018-05-27T00:21:53.359Z,94.20
2018-05-27T00:24:21.375Z,94.60
2018-05-27T00:26:50.122Z,94.70
2018-05-27T00:29:18.139Z,94.90
2018-05-27T00:31:47.031Z,94.90
2018-05-27T00:34:15.051Z,94.60
2018-05-27T00:36:43.064Z,95.10
2018-05-27T00:39:11.080Z,95.20
2018-05-27T00:41:39.136Z,95.30
2018-05-27T00:44:07.204Z,95.20
2018-05-27T00:46:35.264Z,95.10
2018-05-27T00:49:04.121Z,95.50
2018-05-27T00:51:32.160Z,95.40
2018-05-27T00:54:01.121Z,96.40
2018-05-27T00:56:29.164Z,96.40
2018-05-27T00:58:57.232Z,96.50
2018-05-27T01:01:26.049Z,96.40
2018-05-27T01:03:54.107Z,96.30
2018-05-27T01:06:22.904Z,96.30
2018-05-27T01:08:50.965Z,96.20
2018-05-27T01:11:20.543Z,96.20
2018-05-27T01:13:48.603Z,96.20
2018-05-27T01:16:17.831Z,96.10
2018-05-27T01:18:45.891Z,96.00
2018-05-27T01:21:13.947Z,95.80
2018-05-27T01:23:42.012Z,95.80
2018-05-27T01:26:10.067Z,96.30
2018-05-27T01:28:38.147Z,96.70
2018-05-27T01:31:06.205Z,96.30
2018-05-27T01:33:34.275Z,96.30
2018-05-27T01:36:02.329Z,96.70
2018-05-27T01:38:30.371Z,96.40
2018-05-27T01:40:59.210Z,96.60
2018-05-27T01:43:27.244Z,96.60
2018-05-27T01:45:55.302Z,96.60
2018-05-27T01:48:23.370Z,96.30
2018-05-27T01:50:51.411Z,96.30
2018-05-27T01:53:20.245Z,96.50
2018-05-27T01:55:48.276Z,96.40
2018-05-27T01:58:16.352Z,96.40
2018-05-27T02:00:44.393Z,96.20
2018-05-27T02:03:12.449Z,96.30
2018-05-27T02:05:41.251Z,96.60
2018-05-27T02:08:10.087Z,96.60
2018-05-27T02:10:38.124Z,96.60
2018-05-27T02:13:06.183Z,96.30
2018-05-27T02:15:34.452Z,96.90
2018-05-27T02:18:02.507Z,96.50
2018-05-27T02:20:30.980Z,96.80
2018-05-27T02:22:59.050Z,96.50
2018-05-27T02:25:27.099Z,96.50
2018-05-27T02:27:55.144Z,97.00
2018-05-27T02:30:23.976Z,96.60
2018-05-27T02:32:52.034Z,96.60
2018-05-27T02:35:20.220Z,96.50
2018-05-27T02:37:48.380Z,96.50
2018-05-27T02:40:16.447Z,96.80
2018-05-27T02:42:44.501Z,97.10
2018-05-27T02:45:12.568Z,97.50
2018-05-27T02:47:40.628Z,97.50
2018-05-27T02:50:09.459Z,97.10
2018-05-27T02:52:37.501Z,97.10
2018-05-27T02:55:05.571Z,97.30
2018-05-27T02:57:33.620Z,97.50
2018-05-27T03:00:01.714Z,97.70
2018-05-27T03:02:30.605Z,97.70
2018-05-27T03:04:59.082Z,97.70
2018-05-27T03:07:27.171Z,97.60
2018-05-27T03:09:55.220Z,97.70
2018-05-27T03:12:24.063Z,97.20
2018-05-27T03:14:52.112Z,97.20
2018-05-27T03:17:21.684Z,97.30
2018-05-27T03:19:50.564Z,97.30
2018-05-27T03:22:18.643Z,97.30
2018-05-27T03:24:47.467Z,97.20
2018-05-27T03:27:15.512Z,97.10
2018-05-27T03:29:44.343Z,97.90
2018-05-27T03:32:12.407Z,97.80
2018-05-27T03:34:41.237Z,97.50
2018-05-27T03:37:09.272Z,97.50
2018-05-27T03:39:37.392Z,97.30
2018-05-27T03:42:05.446Z,97.60
2018-05-27T03:44:33.505Z,97.70
2018-05-27T03:47:01.562Z,97.50
2018-05-27T03:49:29.611Z,97.20
2018-05-27T03:51:58.423Z,96.90
2018-05-27T03:54:26.497Z,96.90
2018-05-27T03:56:55.311Z,97.30
2018-05-27T03:59:24.141Z,97.30
2018-05-27T04:01:52.224Z,97.30
2018-05-27T04:07:42.553Z,96.80
2018-05-27T04:10:10.613Z,97.20
2018-05-27T04:12:39.440Z,97.80
2018-05-27T04:15:07.480Z,97.60
2018-05-27T04:17:35.547Z,97.70
2018-05-27T04:20:03.595Z,97.70
2018-05-27T04:22:31.668Z,97.30
2018-05-27T04:24:59.711Z,97.10
2018-05-27T04:27:27.775Z,96.90
2018-05-27T04:29:55.829Z,96.80
2018-05-27T04:32:23.890Z,96.50
2018-05-27T04:34:52.699Z,95.10
2018-05-27T04:37:21.527Z,94.60
2018-05-27T04:39:49.578Z,94.60
2018-05-27T04:42:18.433Z,93.50
2018-05-27T04:44:46.504Z,93.50
2018-05-27T04:47:14.555Z,94.10
2018-05-27T04:49:43.396Z,93.90
2018-05-27T04:52:11.439Z,93.90
2018-05-27T04:54:39.503Z,93.40
2018-05-27T04:57:08.340Z,93.40
2018-05-27T04:59:36.411Z,93.30
2018-05-27T05:02:04.724Z,93.10
2018-05-27T05:04:32.792Z,92.90
2018-05-27T05:07:00.850Z,92.70
2018-05-27T05:09:29.725Z,91.80
2018-05-27T05:11:57.747Z,91.80
2018-05-27T05:14:26.575Z,90.70
2018-05-27T05:16:54.625Z,90.70
2018-05-27T05:19:23.460Z,89.90
2018-05-27T05:21:51.508Z,90.20
2018-05-27T05:24:20.351Z,89.60
2018-05-27T05:26:48.547Z,88.70
2018-05-27T05:29:16.575Z,90.00
2018-05-27T05:31:44.631Z,86.70
2018-05-27T05:34:12.673Z,87.00
2018-05-27T05:36:40.731Z,85.20
2018-05-27T05:39:09.531Z,81.30
2018-05-27T05:41:38.372Z,80.50
2018-05-27T05:44:06.411Z,80.50
2018-05-27T05:46:34.475Z,79.80
2018-05-27T05:49:02.551Z,80.60
2018-05-27T05:51:30.692Z,80.70
2018-05-27T05:53:59.496Z,79.20
2018-05-27T05:56:27.554Z,79.30
2018-05-27T05:58:55.603Z,78.50
2018-05-27T06:01:23.660Z,77.90
2018-05-27T06:03:51.737Z,77.30
2018-05-27T06:06:19.786Z,74.80
2018-05-27T06:08:47.851Z,75.60
2018-05-27T06:11:15.903Z,75.50
2018-05-27T06:13:43.964Z,74.20
2018-05-27T06:16:12.784Z,75.40
2018-05-27T06:18:40.849Z,75.40
2018-05-27T06:21:09.653Z,73.40
2018-05-27T06:23:37.744Z,73.30
2018-05-27T06:26:05.783Z,72.80
2018-05-27T06:28:33.844Z,72.90
2018-05-27T06:31:01.883Z,73.50
2018-05-27T06:33:30.715Z,69.30
2018-05-27T06:35:58.759Z,69.30
2018-05-27T06:38:27.599Z,73.50
2018-05-27T06:40:55.648Z,72.70
2018-05-27T06:43:24.466Z,72.80
2018-05-27T06:45:52.539Z,72.80
2018-05-27T06:48:21.360Z,68.30
2018-05-27T06:50:49.434Z,68.40
2018-05-27T06:53:17.479Z,65.30
2018-05-27T06:55:45.545Z,65.70
2018-05-27T06:58:13.587Z,65.10
2018-05-27T07:00:42.590Z,66.20
2018-05-27T07:03:11.431Z,63.00
2018-05-27T07:05:39.474Z,63.00
2018-05-27T07:08:07.558Z,63.40
2018-05-27T07:10:36.357Z,62.50
2018-05-27T07:13:05.179Z,60.10
2018-05-27T07:15:33.216Z,60.00
2018-05-27T07:18:02.788Z,60.20
2018-05-27T07:20:30.827Z,60.10
2018-05-27T07:22:58.902Z,63.40
2018-05-27T07:25:27.024Z,62.80
2018-05-27T07:27:55.082Z,63.70
2018-05-27T07:32:40.889Z,59.30
2018-05-27T07:35:08.952Z,60.00
2018-05-27T07:37:36.984Z,59.30
2018-05-27T07:40:05.043Z,60.70
2018-05-27T07:42:33.079Z,59.90
2018-05-27T07:45:01.138Z,60.40
2018-05-27T07:47:29.948Z,61.70
2018-05-27T07:49:58.777Z,63.80
2018-05-27T07:52:26.873Z,63.80
2018-05-27T07:54:54.966Z,63.90
2018-05-27T07:57:23.011Z,59.90
2018-05-27T07:59:51.061Z,58.90
2018-05-27T08:02:19.177Z,60.50
2018-05-27T08:04:47.175Z,63.00
2018-05-27T08:07:15.240Z,62.30
2018-05-27T08:09:44.040Z,61.50
2018-05-27T08:12:12.120Z,61.40
2018-05-27T08:14:40.952Z,62.30
2018-05-27T08:17:09.001Z,62.10
2018-05-27T08:19:37.051Z,63.10
2018-05-27T08:22:05.092Z,64.00
2018-05-27T08:24:33.157Z,65.40
2018-05-27T08:27:01.972Z,63.80
2018-05-27T08:29:30.796Z,63.30
2018-05-27T08:31:58.835Z,63.30
2018-05-27T08:34:26.896Z,62.30
2018-05-27T08:36:54.928Z,60.30
2018-05-27T08:39:22.991Z,57.90
2018-05-27T08:41:51.792Z,59.40
2018-05-27T08:44:20.662Z,61.60
2018-05-27T08:46:48.704Z,61.60
2018-05-27T08:49:16.820Z,63.20
2018-05-27T08:51:44.871Z,59.70
2018-05-27T08:54:12.935Z,58.70
2018-05-27T08:56:41.746Z,58.70
2018-05-27T08:59:10.563Z,55.70
2018-05-27T09:01:38.607Z,55.70
2018-05-27T09:04:06.655Z,55.50
2018-05-27T09:06:34.691Z,56.10
2018-05-27T09:09:02.790Z,57.10
2018-05-27T09:11:30.823Z,57.20
2018-05-27T09:13:58.865Z,55.10
2018-05-27T09:16:26.949Z,53.50
2018-05-27T09:18:55.000Z,53.90
2018-05-27T09:21:23.060Z,53.30
2018-05-27T09:23:51.104Z,53.80
2018-05-27T09:26:19.198Z,57.70
2018-05-27T09:28:47.235Z,53.10
2018-05-27T09:31:16.059Z,50.40
2018-05-27T09:33:44.854Z,51.30
2018-05-27T09:36:13.674Z,52.30
2018-05-27T09:38:41.719Z,52.30
2018-05-27T09:41:10.544Z,49.30
2018-05-27T09:43:39.351Z,48.50
2018-05-27T09:46:08.177Z,40.50
2018-05-27T09:48:36.209Z,40.20
2018-05-27T09:51:04.317Z,39.80
2018-05-27T09:53:32.352Z,40.30
2018-05-27T09:56:00.389Z,41.30
2018-05-27T09:58:29.203Z,40.40
2018-05-27T10:00:57.254Z,40.30
2018-05-27T10:03:25.298Z,38.50
2018-05-27T10:05:53.361Z,39.50
2018-05-27T10:08:21.415Z,41.30
2018-05-27T10:10:50.243Z,45.60
2018-05-27T10:13:18.308Z,45.70
2018-05-27T10:15:46.359Z,39.60
2018-05-27T10:18:14.432Z,41.60
2018-05-27T10:20:42.467Z,41.60
2018-05-27T10:23:10.527Z,41.80
2018-05-27T10:25:39.338Z,42.40
2018-05-27T10:28:08.444Z,38.60
2018-05-27T10:30:36.482Z,38.50
2018-05-27T10:33:04.536Z,43.10
2018-05-27T10:35:32.595Z,42.50
2018-05-27T10:38:01.395Z,41.20
2018-05-27T10:40:30.223Z,42.50
2018-05-27T10:42:58.275Z,42.40
2018-05-27T10:45:27.095Z,41.50
2018-05-27T10:47:55.903Z,41.90
2018-05-27T10:50:23.967Z,42.00
2018-05-27T10:52:52.770Z,39.90
2018-05-27T10:55:21.596Z,40.70
2018-05-27T10:57:49.648Z,40.50
2018-05-27T11:00:18.481Z,41.20
2018-05-27T11:02:46.512Z,41.20
2018-05-27T11:05:14.571Z,43.60
2018-05-27T11:07:42.606Z,43.70
2018-05-27T11:10:10.677Z,43.20
2018-05-27T11:12:38.706Z,43.20
2018-05-27T11:15:06.775Z,41.30
2018-05-27T11:17:34.814Z,44.00
2018-05-27T11:20:02.872Z,44.40
2018-05-27T11:22:30.914Z,41.30
2018-05-27T11:24:59.747Z,40.70
2018-05-27T11:27:27.784Z,40.60
2018-05-27T11:29:55.889Z,41.70
2018-05-27T11:32:23.915Z,43.60
2018-05-27T11:34:51.991Z,38.90
2018-05-27T11:37:20.032Z,40.00
2018-05-27T11:39:48.102Z,39.00
2018-05-27T11:42:16.167Z,38.80
2018-05-27T11:44:44.215Z,37.70
2018-05-27T11:47:12.251Z,42.50
2018-05-27T11:49:40.312Z,39.10
2018-05-27T11:52:08.359Z,36.30
2018-05-27T11:54:36.419Z,36.40
2018-05-27T11:57:05.219Z,35.50
2018-05-27T11:59:34.045Z,36.00
2018-05-27T12:02:02.154Z,35.90
2018-05-27T12:04:30.950Z,38.80
2018-05-27T12:06:58.975Z,38.70
2018-05-27T12:09:28.709Z,40.40
2018-05-27T12:11:56.601Z,40.40
2018-05-27T12:14:24.655Z,39.40
2018-05-27T12:16:52.695Z,35.60
2018-05-27T12:19:20.764Z,36.00
2018-05-27T12:21:49.591Z,38.20
2018-05-27T12:24:17.626Z,38.10
2018-05-27T12:26:46.492Z,39.20
2018-05-27T12:29:14.535Z,38.70
2018-05-27T12:31:43.380Z,39.50
2018-05-27T12:34:11.419Z,39.40
2018-05-27T12:36:40.228Z,35.40
2018-05-27T12:39:08.275Z,35.30
2018-05-27T12:41:36.344Z,35.90
2018-05-27T12:44:04.374Z,34.80
2018-05-27T12:46:33.195Z,33.60
2018-05-27T12:49:01.227Z,33.60
2018-05-27T12:51:29.287Z,30.90
2018-05-27T12:53:57.327Z,32.30
2018-05-27T12:56:26.162Z,33.70
2018-05-27T12:58:54.202Z,33.60
2018-05-27T13:01:22.271Z,32.20
2018-05-27T13:03:50.322Z,31.80
2018-05-27T13:06:18.380Z,35.90
2018-05-27T13:08:46.465Z,36.60
2018-05-27T13:11:14.510Z,32.30
2018-05-27T13:13:42.556Z,32.50
2018-05-27T13:16:10.611Z,30.70
2018-05-27T13:18:39.427Z,30.00
2018-05-27T13:21:07.459Z,30.00
2018-05-27T13:23:36.281Z,29.90
2018-05-27T13:26:05.099Z,28.90
2018-05-27T13:28:33.900Z,28.80
2018-05-27T13:31:02.719Z,29.80
2018-05-27T13:33:30.755Z,29.70
2018-05-27T13:35:58.897Z,28.20
2018-05-27T13:38:26.964Z,26.90
2018-05-27T13:40:55.016Z,27.10
2018-05-27T13:43:23.067Z,29.30
2018-05-27T13:45:51.128Z,26.90
2018-05-27T13:48:19.163Z,26.90
2018-05-27T13:50:47.223Z,29.30
2018-05-27T13:53:15.259Z,28.30
2018-05-27T13:55:44.071Z,26.40
2018-05-27T13:58:12.127Z,26.50
2018-05-27T14:00:40.931Z,27.70
2018-05-27T14:03:09.752Z,28.30
2018-05-27T14:05:37.800Z,28.30
2018-05-27T14:08:05.860Z,27.20
2018-05-27T14:10:33.899Z,28.30
2018-05-27T14:13:02.720Z,26.20
2018-05-27T14:15:30.785Z,26.10
2018-05-27T14:17:59.591Z,26.70
2018-05-27T14:20:28.432Z,25.20
2018-05-27T14:22:56.490Z,25.10
2018-05-27T14:25:24.533Z,27.10
2018-05-27T14:27:52.601Z,24.60
2018-05-27T14:30:20.641Z,26.10
2018-05-27T14:32:48.711Z,28.20
2018-05-27T14:35:16.780Z,27.30
2018-05-27T14:37:45.591Z,26.00
2018-05-27T14:40:14.419Z,24.70
2018-05-27T14:42:42.456Z,24.70
2018-05-27T14:45:10.511Z,26.10
2018-05-27T14:47:38.543Z,26.60
2018-05-27T14:50:07.376Z,25.00
2018-05-27T14:52:35.410Z,25.00
2018-05-27T14:55:03.466Z,24.70
2018-05-27T14:57:31.509Z,26.30
2018-05-27T14:59:59.581Z,25.00
2018-05-27T15:02:28.386Z,22.30
2018-05-27T15:04:57.224Z,23.80
2018-05-27T15:07:25.290Z,23.80
2018-05-27T15:09:53.320Z,24.10
2018-05-27T15:12:21.407Z,22.50
2018-05-27T15:14:49.446Z,23.30
2018-05-27T15:17:17.496Z,23.50
2018-05-27T15:19:46.311Z,21.50
2018-05-27T15:22:15.138Z,20.50
2018-05-27T15:24:43.176Z,20.40
2018-05-27T15:27:12.746Z,21.50
2018-05-27T15:29:40.772Z,21.50
2018-05-27T15:32:08.907Z,22.60
2018-05-27T15:34:38.411Z,22.40
2018-05-27T15:37:07.235Z,21.90
2018-05-27T15:39:35.299Z,21.90
2018-05-27T15:42:03.364Z,20.80
2018-05-27T15:44:32.167Z,22.90
2018-05-27T15:47:00.984Z,20.70
2018-05-27T15:49:29.044Z,20.70
2018-05-27T15:51:57.103Z,22.80
2018-05-27T15:54:25.140Z,22.70
2018-05-27T15:56:53.191Z,21.30
2018-05-27T15:59:21.265Z,20.50
2018-05-27T16:01:52.101Z,19.70
2018-05-27T16:04:20.167Z,20.50
2018-05-27T16:06:48.221Z,21.00
2018-05-27T16:09:17.049Z,24.00
2018-05-27T16:11:45.097Z,23.70
2018-05-27T16:14:13.921Z,22.70
2018-05-27T16:16:41.946Z,22.70
2018-05-27T16:19:11.516Z,22.30
2018-05-27T16:21:40.343Z,22.40
2018-05-27T16:24:08.379Z,22.40
2018-05-27T16:26:37.206Z,22.50
2018-05-27T16:29:05.247Z,22.60
2018-05-27T16:31:33.307Z,26.10
2018-05-27T16:34:01.356Z,22.00
2018-05-27T16:36:29.415Z,22.30
2018-05-27T16:38:58.223Z,25.30
2018-05-27T16:41:27.052Z,26.40
2018-05-27T16:43:55.083Z,26.50
2018-05-27T16:46:23.228Z,25.70
2018-05-27T16:48:51.252Z,26.50
2018-05-27T16:51:19.319Z,24.80
2018-05-27T16:53:47.362Z,25.80
2018-05-27T16:56:15.450Z,26.40
2018-05-27T16:58:43.494Z,27.00
2018-05-27T17:01:11.543Z,28.40
2018-05-27T17:03:39.599Z,26.20
2018-05-27T17:06:07.650Z,26.70
2018-05-27T17:08:35.711Z,26.80
2018-05-27T17:11:03.757Z,28.10
2018-05-27T17:13:31.823Z,28.60
2018-05-27T17:15:59.867Z,29.20
2018-05-27T17:18:27.926Z,29.70
2018-05-27T17:20:56.057Z,28.50
2018-05-27T17:23:24.148Z,28.90
2018-05-27T17:25:53.116Z,28.70
2018-05-27T17:28:21.183Z,28.70
2018-05-27T17:30:49.347Z,30.60
2018-05-27T17:33:17.387Z,31.00
2018-05-27T17:35:45.458Z,29.20
2018-05-27T17:38:13.495Z,30.10
2018-05-27T17:40:41.556Z,30.40
2018-05-27T17:43:10.379Z,33.00
2018-05-27T17:45:38.452Z,32.90
2018-05-27T17:48:12.365Z,32.90
2018-05-27T17:50:40.435Z,32.20
2018-05-27T17:53:08.486Z,32.50
2018-05-27T17:55:36.583Z,32.50
2018-05-27T17:58:04.650Z,33.90
2018-05-27T18:00:32.733Z,33.70
2018-05-27T18:03:00.808Z,33.60
2018-05-27T18:05:28.881Z,33.70
2018-05-27T18:07:56.936Z,34.90
2018-05-27T18:10:25.744Z,34.60
2018-05-27T18:12:54.607Z,35.80
2018-05-27T18:15:22.739Z,35.70
2018-05-27T18:17:51.599Z,37.70
2018-05-27T18:20:19.701Z,37.70
2018-05-27T18:22:47.820Z,37.70
2018-05-27T18:25:15.927Z,38.10
2018-05-27T18:27:43.988Z,37.60
2018-05-27T18:30:12.829Z,38.40
2018-05-27T18:32:40.911Z,38.30
2018-05-27T18:35:08.991Z,39.40
2018-05-27T18:37:37.043Z,40.60
2018-05-27T18:40:05.111Z,41.50
2018-05-27T18:42:33.898Z,42.70
2018-05-27T18:45:01.959Z,42.50
2018-05-27T18:47:29.996Z,41.80
2018-05-27T18:49:58.076Z,42.40
2018-05-27T18:52:26.893Z,43.30
2018-05-27T18:54:54.961Z,43.30
2018-05-27T18:57:23.028Z,43.40
2018-05-27T18:59:51.109Z,43.50
2018-05-27T19:02:19.174Z,42.50
2018-05-27T19:04:47.329Z,41.90
2018-05-27T19:07:15.392Z,41.80
2018-05-27T19:09:43.439Z,42.50
2018-05-27T19:12:11.487Z,43.60
2018-05-27T19:14:39.531Z,43.70
2018-05-27T19:17:08.377Z,44.10
2018-05-27T19:19:36.421Z,44.10
2018-05-27T19:22:05.256Z,44.90
2018-05-27T19:24:33.310Z,44.80
2018-05-27T19:27:02.125Z,44.60
2018-05-27T19:29:30.173Z,44.60
2018-05-27T19:31:58.253Z,46.10
2018-05-27T19:34:26.286Z,46.40
2018-05-27T19:36:54.398Z,46.70
2018-05-27T19:39:22.460Z,46.20
2018-05-27T19:41:50.531Z,46.00
2018-05-27T19:44:18.730Z,47.90
2018-05-27T19:46:46.839Z,47.70
2018-05-27T19:49:14.880Z,48.00
2018-05-27T19:51:42.955Z,47.70
2018-05-27T19:54:11.785Z,47.70
2018-05-27T19:56:39.822Z,47.70
2018-05-27T19:59:08.648Z,48.80
2018-05-27T20:01:36.747Z,48.80
2018-05-27T20:04:04.815Z,49.30
2018-05-27T20:06:32.880Z,50.20
2018-05-27T20:09:01.725Z,50.10
2018-05-27T20:11:29.755Z,50.10
2018-05-27T20:13:57.822Z,51.30
2018-05-27T20:16:25.851Z,51.20
2018-05-27T20:18:53.964Z,50.80
2018-05-27T20:21:22.035Z,50.70
2018-05-27T20:23:50.097Z,50.90
2018-05-27T20:26:18.985Z,51.70
2018-05-27T20:28:47.813Z,50.80
2018-05-27T20:31:15.900Z,50.80
2018-05-27T20:33:43.961Z,51.50
2018-05-27T20:36:12.007Z,51.30
2018-05-27T20:38:40.079Z,51.30
2018-05-27T20:41:08.128Z,51.40
2018-05-27T20:43:36.936Z,51.40
2018-05-27T20:46:05.004Z,51.30
2018-05-27T20:48:33.888Z,52.40
2018-05-27T20:51:01.960Z,52.40
2018-05-27T20:53:29.999Z,53.10
2018-05-27T20:55:58.076Z,54.40
2018-05-27T20:58:26.110Z,54.50
2018-05-27T21:00:54.179Z,55.20
2018-05-27T21:03:22.221Z,55.20
2018-05-27T21:05:50.288Z,55.30
2018-05-27T21:08:18.332Z,55.90
2018-05-27T21:10:46.458Z,55.20
2018-05-27T21:13:14.512Z,56.30
2018-05-27T21:15:42.571Z,57.40
2018-05-27T21:18:10.639Z,58.30
2018-05-27T21:20:38.700Z,57.00
2018-05-27T21:23:07.564Z,57.80
2018-05-27T21:25:35.608Z,57.60
2018-05-27T21:28:04.617Z,57.50
2018-05-27T21:30:32.655Z,57.60
2018-05-27T21:33:00.795Z,56.70
2018-05-27T21:35:28.847Z,56.00
2018-05-27T21:37:57.684Z,56.00
2018-05-27T21:40:25.739Z,55.90
2018-05-27T21:42:54.568Z,57.60
2018-05-27T21:45:22.644Z,57.60
2018-05-27T21:47:50.684Z,57.10
2018-05-27T21:50:18.751Z,57.50
2018-05-27T21:52:46.811Z,57.70
2018-05-27T21:55:14.875Z,57.70
2018-05-27T21:57:42.915Z,57.70
2018-05-27T22:00:10.991Z,57.60
2018-05-27T22:02:39.041Z,58.10
2018-05-27T22:05:07.119Z,58.60
2018-05-27T22:07:35.168Z,59.50
2018-05-27T22:10:03.235Z,60.30
2018-05-27T22:12:31.283Z,59.80
2018-05-27T22:14:59.351Z,60.20
2018-05-27T22:17:27.424Z,60.60
2018-05-27T22:19:55.467Z,60.60
2018-05-27T22:22:23.531Z,61.90
2018-05-27T22:24:51.582Z,62.10
2018-05-27T22:27:19.639Z,63.00
2018-05-27T22:29:48.463Z,63.10
2018-05-27T22:32:16.533Z,63.00
2018-05-27T22:34:45.350Z,63.00
2018-05-27T22:37:13.416Z,63.00
2018-05-27T22:39:42.243Z,64.80
2018-05-27T22:42:10.288Z,64.70
2018-05-27T22:44:38.352Z,64.90
2018-05-27T22:47:06.395Z,67.20
2018-05-27T22:49:34.459Z,66.10
2018-05-27T22:52:03.704Z,66.90
2018-05-27T22:54:31.757Z,66.80
2018-05-27T22:57:00.564Z,68.50
2018-05-27T22:59:29.388Z,69.10
2018-05-27T23:01:57.432Z,69.00
2018-05-27T23:04:25.494Z,70.00
2018-05-27T23:06:53.534Z,70.10
2018-05-27T23:09:21.584Z,70.30
2018-05-27T23:11:50.411Z,71.20
2018-05-27T23:14:18.455Z,70.50
2018-05-27T23:16:46.524Z,70.80
2018-05-27T23:19:14.563Z,71.90
2018-05-27T23:21:42.631Z,71.80
2018-05-27T23:24:11.433Z,71.80
2018-05-27T23:26:40.268Z,71.90
2018-05-27T23:29:08.303Z,71.80
2018-05-27T23:31:36.372Z,71.90
2018-05-27T23:34:04.406Z,72.10
2018-05-27T23:36:32.476Z,73.50
2018-05-27T23:39:01.304Z,74.40
2018-05-27T23:41:29.352Z,74.30
2018-05-27T23:43:58.171Z,74.70
2018-05-27T23:46:26.216Z,74.70
2018-05-27T23:48:54.475Z,75.30
2018-05-27T23:51:22.516Z,76.40
2018-05-27T23:53:51.346Z,76.80
2018-05-27T23:56:19.387Z,76.70
2018-05-27T23:58:47.451Z,77.80
